createdAt,value
2023-03-29T00:01:35.177Z,505.00
2023-03-29T00:02:14.744Z,505.00
2023-03-29T00:05:14.686Z,509.00
2023-03-29T00:07:14.695Z,504.00
2023-03-29T00:09:14.647Z,504.00
2023-03-29T00:10:14.627Z,506.00
2023-03-29T00:11:14.630Z,500.00
2023-03-29T00:14:14.613Z,500.00
2023-03-29T00:15:14.614Z,505.00
2023-03-29T00:18:14.591Z,512.00
2023-03-29T00:19:14.595Z,502.00
2023-03-29T00:23:14.558Z,506.00
2023-03-29T00:25:14.538Z,506.00
2023-03-29T00:26:14.600Z,504.00
2023-03-29T00:27:14.575Z,504.00
2023-03-29T00:29:14.501Z,505.00
2023-03-29T00:30:14.487Z,510.00
2023-03-29T00:33:14.459Z,507.00
2023-03-29T00:34:14.459Z,501.00
2023-03-29T00:36:14.488Z,508.00
2023-03-29T00:37:14.450Z,512.00
2023-03-29T00:39:14.425Z,504.00
2023-03-29T00:41:14.403Z,510.00
2023-03-29T00:43:14.383Z,511.00
2023-03-29T00:46:14.409Z,510.00
2023-03-29T00:48:14.327Z,510.00
2023-03-29T00:49:14.317Z,507.00
2023-03-29T00:50:14.340Z,505.00
2023-03-29T00:52:14.272Z,511.00
2023-03-29T00:53:14.254Z,510.00
2023-03-29T00:57:14.261Z,512.00
2023-03-29T00:58:14.221Z,507.00
2023-03-29T01:01:14.178Z,512.00
2023-03-29T01:02:14.252Z,511.00
2023-03-29T01:03:14.211Z,507.00
2023-03-29T01:04:14.138Z,504.00
2023-03-29T01:08:14.089Z,510.00
2023-03-29T01:11:14.063Z,509.00
2023-03-29T01:13:14.034Z,512.00
2023-03-29T01:14:14.031Z,507.00
2023-03-29T01:17:14.012Z,505.00
2023-03-29T01:19:13.989Z,505.00
2023-03-29T01:22:13.982Z,511.00
2023-03-29T01:23:14.012Z,504.00
2023-03-29T01:25:13.919Z,510.00
2023-03-29T01:28:13.898Z,511.00
2023-03-29T01:29:13.881Z,505.00
2023-03-29T01:30:13.886Z,506.00
2023-03-29T01:34:13.960Z,506.00
2023-03-29T01:35:13.803Z,510.00
2023-03-29T01:38:13.769Z,509.00
2023-03-29T01:39:13.744Z,506.00
2023-03-29T01:43:13.693Z,504.00
2023-03-29T01:44:13.691Z,506.00
2023-03-29T01:45:13.682Z,508.00
2023-03-29T01:46:13.722Z,510.00
2023-03-29T01:47:13.683Z,503.00
2023-03-29T01:50:13.628Z,506.00
2023-03-29T01:53:13.565Z,504.00
2023-03-29T01:54:13.555Z,510.00
2023-03-29T01:55:13.543Z,502.00
2023-03-29T01:56:13.528Z,512.00
2023-03-29T02:00:13.494Z,507.00
2023-03-29T02:01:13.510Z,506.00
2023-03-29T02:04:13.511Z,509.00
2023-03-29T02:05:13.438Z,508.00
2023-03-29T02:06:13.420Z,505.00
2023-03-29T02:10:13.382Z,512.00
2023-03-29T02:12:13.367Z,508.00
2023-03-29T02:14:13.357Z,511.00
2023-03-29T02:15:13.353Z,507.00
2023-03-29T02:17:13.326Z,509.00
2023-03-29T02:18:13.367Z,511.00
2023-03-29T02:21:13.304Z,510.00
2023-03-29T02:23:13.305Z,515.00
2023-03-29T02:25:13.301Z,508.00
2023-03-29T02:26:13.297Z,508.00
2023-03-29T02:29:13.279Z,506.00
2023-03-29T02:30:13.286Z,510.00
2023-03-29T02:31:13.317Z,510.00
2023-03-29T02:32:13.280Z,506.00
2023-03-29T02:33:13.280Z,501.00
2023-03-29T02:37:13.250Z,505.00
2023-03-29T02:38:13.299Z,507.00
2023-03-29T02:40:13.271Z,508.00
2023-03-29T02:41:13.227Z,500.00
2023-03-29T02:42:13.235Z,508.00
2023-03-29T02:43:13.208Z,509.00
2023-03-29T02:47:13.162Z,505.00
2023-03-29T02:48:13.140Z,502.00
2023-03-29T02:51:13.104Z,505.00
2023-03-29T02:54:13.047Z,510.00
2023-03-29T02:57:13.081Z,498.00
2023-03-29T02:58:13.016Z,496.00
2023-03-29T03:00:12.999Z,495.00
2023-03-29T03:03:13.129Z,403.00
2023-03-29T03:04:12.998Z,400.00
2023-03-29T03:07:12.926Z,400.00
2023-03-29T03:08:12.942Z,400.00
2023-03-29T03:11:12.905Z,400.00
2023-03-29T03:12:12.912Z,400.00
2023-03-29T03:13:12.912Z,400.00
2023-03-29T03:14:12.897Z,400.00
2023-03-29T03:18:12.867Z,446.00
2023-03-29T03:19:12.844Z,478.00
2023-03-29T03:22:12.824Z,504.00
2023-03-29T03:23:12.836Z,502.00
2023-03-29T03:25:12.818Z,502.00
2023-03-29T03:27:12.800Z,501.00
2023-03-29T03:28:12.799Z,501.00
2023-03-29T03:31:12.826Z,500.00
2023-03-29T03:35:12.772Z,500.00
2023-03-29T03:38:12.786Z,500.00
2023-03-29T03:39:12.777Z,500.00
2023-03-29T03:40:12.786Z,500.00
2023-03-29T03:44:12.760Z,500.00
2023-03-29T03:45:12.724Z,500.00
2023-03-29T03:46:12.774Z,501.00
2023-03-29T03:49:12.698Z,500.00
2023-03-29T03:52:12.695Z,501.00
2023-03-29T03:56:12.666Z,503.00
2023-03-29T03:57:12.753Z,500.00
2023-03-29T03:58:12.667Z,503.00
2023-03-29T03:59:12.678Z,500.00
2023-03-29T04:05:12.647Z,537.00
2023-03-29T04:06:12.646Z,521.00
2023-03-29T04:07:12.630Z,504.00
2023-03-29T04:09:12.616Z,500.00
2023-03-29T04:14:12.610Z,548.00
2023-03-29T04:15:12.599Z,522.00
2023-03-29T04:16:12.636Z,501.00
2023-03-29T04:17:12.577Z,505.00
2023-03-29T04:18:12.781Z,500.00
2023-03-29T04:23:12.547Z,472.00
2023-03-29T04:25:12.593Z,501.00
2023-03-29T04:27:12.548Z,553.00
2023-03-29T04:29:12.537Z,676.00
2023-03-29T04:32:12.536Z,1154.00
2023-03-29T04:36:12.524Z,1521.00
2023-03-29T04:37:12.508Z,1416.00
2023-03-29T04:38:12.509Z,1221.00
2023-03-29T04:41:12.483Z,1281.00
2023-03-29T04:42:12.492Z,1360.00
2023-03-29T04:44:12.513Z,1318.00
2023-03-29T04:48:12.489Z,810.00
2023-03-29T04:51:12.417Z,657.00
2023-03-29T04:52:12.427Z,602.00
2023-03-29T04:53:12.423Z,505.00
2023-03-29T04:54:12.402Z,476.00
2023-03-29T04:55:12.406Z,460.00
2023-03-29T04:58:12.404Z,400.00
2023-03-29T05:00:12.405Z,412.00
2023-03-29T05:03:12.430Z,474.00
2023-03-29T05:04:12.883Z,460.00
2023-03-29T05:05:12.415Z,447.00
2023-03-29T05:06:12.384Z,440.00
2023-03-29T05:10:12.395Z,506.00
2023-03-29T05:11:12.400Z,459.00
2023-03-29T05:13:12.416Z,500.00
2023-03-29T05:14:12.403Z,523.00
2023-03-29T05:15:12.424Z,554.00
2023-03-29T05:17:12.434Z,631.00
2023-03-29T05:18:12.477Z,689.00
2023-03-29T05:19:12.430Z,807.00
2023-03-29T05:23:12.412Z,1232.00
2023-03-29T05:26:12.405Z,1260.00
2023-03-29T05:28:12.391Z,1309.00
2023-03-29T05:29:12.397Z,1390.00
2023-03-29T05:30:12.453Z,1510.00
2023-03-29T05:34:12.389Z,1804.00
2023-03-29T05:37:12.526Z,2316.00
2023-03-29T05:38:12.364Z,1790.00
2023-03-29T05:40:12.377Z,2079.00
2023-03-29T05:45:12.380Z,2174.00
2023-03-29T05:46:12.403Z,2549.00
2023-03-29T05:49:12.343Z,2697.00
2023-03-29T05:53:12.325Z,1458.00
2023-03-29T05:54:12.294Z,1465.00
2023-03-29T05:56:12.290Z,1587.00
2023-03-29T05:57:12.397Z,1716.00
2023-03-29T06:00:12.263Z,2250.00
2023-03-29T06:01:12.265Z,2438.00
2023-03-29T06:03:20.251Z,2563.00
2023-03-29T06:04:13.367Z,2568.00
2023-03-29T06:05:12.234Z,2588.00
2023-03-29T06:06:12.241Z,2633.00
2023-03-29T06:07:12.272Z,2731.00
2023-03-29T06:09:12.213Z,2794.00
2023-03-29T06:10:12.201Z,2791.00
2023-03-29T06:14:12.165Z,2754.00
2023-03-29T06:15:12.184Z,2763.00
2023-03-29T06:16:12.147Z,2769.00
2023-03-29T06:17:12.178Z,2824.00
2023-03-29T06:18:12.232Z,2908.00
2023-03-29T06:19:12.150Z,2951.00
2023-03-29T06:20:12.133Z,3012.00
2023-03-29T06:21:12.821Z,3017.00
2023-03-29T06:24:12.108Z,2984.00
2023-03-29T06:25:12.115Z,2955.00
2023-03-29T06:26:12.130Z,2913.00
2023-03-29T06:28:12.077Z,2949.00
2023-03-29T06:29:12.087Z,2893.00
2023-03-29T06:31:12.138Z,3028.00
2023-03-29T06:35:12.042Z,3064.00
2023-03-29T06:37:11.996Z,3048.00
2023-03-29T06:38:11.993Z,3094.00
2023-03-29T06:40:11.968Z,3131.00
2023-03-29T06:45:11.946Z,3497.00
2023-03-29T06:46:12.253Z,3619.00
2023-03-29T06:49:11.916Z,3814.00
2023-03-29T06:50:11.920Z,3803.00
2023-03-29T06:51:11.917Z,3816.00
2023-03-29T06:55:11.856Z,2261.00
2023-03-29T06:58:11.866Z,2148.00
2023-03-29T06:59:11.833Z,2309.00
2023-03-29T07:01:11.846Z,2376.00
2023-03-29T07:02:11.863Z,2375.00
2023-03-29T07:03:11.845Z,2544.00
2023-03-29T07:04:11.859Z,2568.00
2023-03-29T07:08:11.791Z,2686.00
2023-03-29T07:09:11.745Z,2760.00
2023-03-29T07:12:11.785Z,2878.00
2023-03-29T07:13:11.716Z,2856.00
2023-03-29T07:14:11.713Z,2855.00
2023-03-29T07:15:11.709Z,2836.00
2023-03-29T07:16:11.779Z,2957.00
2023-03-29T07:17:11.689Z,3086.00
2023-03-29T07:19:11.671Z,3114.00
2023-03-29T07:23:11.861Z,3276.00
2023-03-29T07:25:11.617Z,3386.00
2023-03-29T07:26:11.615Z,3514.00
2023-03-29T07:27:11.612Z,3589.00
2023-03-29T07:29:11.590Z,3721.00
2023-03-29T07:30:11.588Z,3634.00
2023-03-29T07:32:11.586Z,3792.00
2023-03-29T07:34:11.521Z,3830.00
2023-03-29T07:37:11.486Z,3607.00
2023-03-29T07:38:11.463Z,3876.00
2023-03-29T07:40:11.449Z,4203.00
2023-03-29T07:43:11.407Z,4432.00
2023-03-29T07:47:11.388Z,4628.00
2023-03-29T07:48:11.368Z,4622.00
2023-03-29T07:49:11.330Z,4618.00
2023-03-29T07:50:11.347Z,4627.00
2023-03-29T07:51:11.314Z,4653.00
2023-03-29T07:56:11.232Z,4504.00
2023-03-29T07:57:11.294Z,4466.00
2023-03-29T07:59:11.189Z,4322.00
2023-03-29T08:00:11.181Z,4301.00
2023-03-29T08:01:14.193Z,4264.00
2023-03-29T08:02:11.139Z,4218.00
2023-03-29T08:05:11.126Z,4104.00
2023-03-29T08:09:11.035Z,3973.00
2023-03-29T08:10:11.022Z,3974.00
2023-03-29T08:11:11.018Z,3956.00
2023-03-29T08:12:10.993Z,3950.00
2023-03-29T08:18:10.922Z,3876.00
2023-03-29T08:19:10.878Z,3819.00
2023-03-29T08:21:10.839Z,3747.00
2023-03-29T08:22:10.813Z,3766.00
2023-03-29T08:23:10.795Z,3807.00
2023-03-29T08:27:10.744Z,3991.00
2023-03-29T08:29:10.693Z,3981.00
2023-03-29T08:31:10.682Z,3997.00
2023-03-29T08:32:10.631Z,3926.00
2023-03-29T08:33:10.657Z,4032.00
2023-03-29T08:34:10.585Z,4169.00
2023-03-29T08:39:10.512Z,4117.00
2023-03-29T08:40:10.492Z,3984.00
2023-03-29T08:42:10.498Z,3904.00
2023-03-29T08:44:10.434Z,3686.00
2023-03-29T08:46:10.486Z,3664.00
2023-03-29T08:50:10.357Z,3544.00
2023-03-29T08:52:10.321Z,3609.00
2023-03-29T08:53:10.326Z,3693.00
2023-03-29T08:57:10.296Z,3747.00
2023-03-29T08:58:10.275Z,3747.00
2023-03-29T08:59:10.245Z,3751.00
2023-03-29T09:01:10.229Z,3751.00
2023-03-29T09:02:10.216Z,3783.00
2023-03-29T09:03:10.280Z,3863.00
2023-03-29T09:07:10.144Z,4316.00
2023-03-29T09:08:10.146Z,4279.00
2023-03-29T09:09:10.116Z,4308.00
2023-03-29T09:11:10.085Z,4310.00
2023-03-29T09:13:10.062Z,4258.00
2023-03-29T09:14:10.055Z,4270.00
2023-03-29T09:16:10.068Z,4259.00
2023-03-29T09:20:09.964Z,4067.00
2023-03-29T09:21:09.941Z,4080.00
2023-03-29T09:22:09.917Z,4014.00
2023-03-29T09:24:09.899Z,4032.00
2023-03-29T09:25:09.908Z,3987.00
2023-03-29T09:26:09.868Z,3955.00
2023-03-29T09:27:09.871Z,3992.00
2023-03-29T09:30:09.820Z,3910.00
2023-03-29T09:31:09.879Z,3937.00
2023-03-29T09:33:09.872Z,3934.00
2023-03-29T09:34:09.791Z,3920.00
2023-03-29T09:35:09.780Z,4046.00
2023-03-29T09:36:09.790Z,4052.00
2023-03-29T09:38:09.713Z,4063.00
2023-03-29T09:40:09.691Z,3907.00
2023-03-29T09:45:09.632Z,3839.00
2023-03-29T09:46:09.615Z,3717.00
2023-03-29T09:48:09.627Z,3558.00
2023-03-29T09:53:09.529Z,3148.00
2023-03-29T09:54:09.510Z,3029.00
2023-03-29T09:55:09.499Z,2964.00
2023-03-29T09:56:09.507Z,2922.00
2023-03-29T09:58:09.484Z,2819.00
2023-03-29T10:01:09.583Z,2702.00
2023-03-29T10:04:09.456Z,2625.00
2023-03-29T10:05:09.384Z,2584.00
2023-03-29T10:06:09.370Z,2534.00
2023-03-29T10:07:09.356Z,2501.00
2023-03-29T10:11:09.295Z,2463.00
2023-03-29T10:14:09.264Z,2437.00
2023-03-29T10:15:16.686Z,2409.00
2023-03-29T10:16:10.250Z,2409.00
2023-03-29T10:18:09.193Z,2412.00
2023-03-29T10:20:10.170Z,2363.00
2023-03-29T10:24:09.063Z,2370.00
2023-03-29T10:26:09.045Z,2415.00
2023-03-29T10:29:09.006Z,2578.00
2023-03-29T10:30:08.992Z,2660.00
2023-03-29T10:32:08.999Z,2789.00
2023-03-29T10:36:08.983Z,3055.00
2023-03-29T10:39:08.881Z,3213.00
2023-03-29T10:40:08.862Z,3265.00
2023-03-29T10:41:08.835Z,3324.00
2023-03-29T10:42:08.820Z,3357.00
2023-03-29T10:43:08.805Z,3388.00
2023-03-29T10:44:08.801Z,3423.00
2023-03-29T10:45:08.776Z,3458.00
2023-03-29T10:50:08.717Z,3698.00
2023-03-29T10:51:08.679Z,3751.00
2023-03-29T10:52:08.710Z,3783.00
2023-03-29T10:53:08.654Z,3820.00
2023-03-29T10:54:08.646Z,3842.00
2023-03-29T10:55:08.650Z,3868.00
2023-03-29T11:01:08.531Z,4066.00
2023-03-29T11:02:08.505Z,4074.00
2023-03-29T11:03:08.631Z,4115.00
2023-03-29T11:06:08.462Z,4154.00
2023-03-29T11:07:08.462Z,4162.00
2023-03-29T11:10:08.388Z,4268.00
2023-03-29T11:12:15.628Z,4294.00
2023-03-29T11:13:09.331Z,4296.00
2023-03-29T11:14:08.322Z,4301.00
2023-03-29T11:16:08.348Z,4332.00
2023-03-29T11:18:08.265Z,4368.00
2023-03-29T11:21:10.744Z,4429.00
2023-03-29T11:22:08.180Z,4447.00
2023-03-29T11:25:08.124Z,4452.00
2023-03-29T11:26:08.162Z,4455.00
2023-03-29T11:28:08.064Z,4476.00
2023-03-29T11:30:08.032Z,4483.00
2023-03-29T11:33:07.994Z,4486.00
2023-03-29T11:34:07.963Z,4485.00
2023-03-29T11:35:07.978Z,4502.00
2023-03-29T11:36:07.997Z,4509.00
2023-03-29T11:39:07.878Z,4532.00
2023-03-29T11:41:07.854Z,4554.00
2023-03-29T11:43:07.813Z,4454.00
2023-03-29T11:47:07.741Z,4495.00
2023-03-29T11:49:07.759Z,4441.00
2023-03-29T11:50:07.761Z,4338.00
2023-03-29T11:51:07.691Z,4260.00
2023-03-29T11:56:07.605Z,4059.00
2023-03-29T11:58:07.569Z,4025.00
2023-03-29T11:59:07.626Z,4014.00
2023-03-29T12:00:07.528Z,3968.00
2023-03-29T12:02:07.593Z,3916.00
2023-03-29T12:03:07.538Z,3894.00
2023-03-29T12:08:07.410Z,3698.00
2023-03-29T12:09:07.394Z,3670.00
2023-03-29T12:11:07.349Z,3613.00
2023-03-29T12:12:07.342Z,3570.00
2023-03-29T12:13:07.312Z,3566.00
2023-03-29T12:15:07.286Z,3483.00
2023-03-29T12:20:07.201Z,3379.00
2023-03-29T12:21:07.293Z,3393.00
2023-03-29T12:22:07.168Z,3355.00
2023-03-29T12:24:07.136Z,3392.00
2023-03-29T12:27:07.073Z,3341.00
2023-03-29T12:28:07.069Z,3366.00
2023-03-29T12:30:07.044Z,3417.00
2023-03-29T12:33:07.031Z,3476.00
2023-03-29T12:34:06.965Z,3486.00
2023-03-29T12:35:06.955Z,3175.00
2023-03-29T12:39:06.883Z,1549.00
2023-03-29T12:41:06.854Z,888.00
2023-03-29T12:43:06.829Z,689.00
2023-03-29T12:44:08.355Z,599.00
2023-03-29T12:46:06.813Z,505.00
2023-03-29T12:47:06.769Z,473.00
2023-03-29T12:49:06.745Z,422.00
2023-03-29T12:50:06.730Z,400.00
2023-03-29T12:51:06.730Z,400.00
2023-03-29T12:52:06.718Z,400.00
2023-03-29T12:53:06.717Z,400.00
2023-03-29T12:54:06.694Z,409.00
2023-03-29T12:55:06.683Z,473.00
2023-03-29T12:56:06.671Z,453.00
2023-03-29T12:57:06.722Z,475.00
2023-03-29T13:00:56.317Z,500.00
2023-03-29T13:01:56.432Z,500.00
2023-03-29T13:02:56.355Z,500.00
2023-03-29T13:03:56.277Z,500.00
2023-03-29T13:04:56.335Z,500.00
2023-03-29T13:05:56.268Z,471.00
2023-03-29T13:06:56.292Z,421.00
2023-03-29T13:07:56.268Z,421.00
2023-03-29T13:08:56.288Z,436.00
2023-03-29T13:09:56.238Z,532.00
2023-03-29T13:10:56.245Z,509.00
2023-03-29T13:11:56.250Z,532.00
2023-03-29T13:12:56.231Z,565.00
2023-03-29T13:13:56.228Z,624.00
2023-03-29T13:14:56.226Z,758.00
2023-03-29T13:15:56.281Z,638.00
2023-03-29T13:16:57.176Z,620.00
2023-03-29T13:17:56.240Z,586.00
2023-03-29T13:18:56.219Z,637.00
2023-03-29T13:19:56.194Z,653.00
2023-03-29T13:20:56.227Z,677.00
2023-03-29T13:21:56.200Z,858.00
2023-03-29T13:22:56.181Z,998.00
2023-03-29T13:23:56.164Z,907.00
2023-03-29T13:24:56.156Z,1032.00
2023-03-29T13:25:56.159Z,1109.00
2023-03-29T13:26:56.167Z,1533.00
2023-03-29T13:27:56.172Z,2138.00
2023-03-29T13:28:58.278Z,2518.00
2023-03-29T13:29:56.114Z,2521.00
2023-03-29T13:30:56.137Z,2528.00
2023-03-29T13:31:56.090Z,2469.00
2023-03-29T13:32:56.147Z,1995.00
2023-03-29T13:33:56.074Z,1957.00
2023-03-29T13:34:56.078Z,1979.00
2023-03-29T13:35:56.079Z,1923.00
2023-03-29T13:36:56.042Z,1785.00
2023-03-29T13:37:56.021Z,1649.00
2023-03-29T13:38:56.020Z,1651.00
2023-03-29T13:39:56.141Z,1557.00
2023-03-29T13:40:56.953Z,1550.00
2023-03-29T13:41:56.183Z,1392.00
2023-03-29T13:42:56.240Z,1295.00
2023-03-29T13:43:56.235Z,1264.00
2023-03-29T13:44:56.237Z,1232.00
2023-03-29T13:45:56.259Z,1169.00
2023-03-29T13:46:56.334Z,1114.00
2023-03-29T13:48:04.992Z,1212.00
2023-03-29T13:48:57.240Z,1200.00
2023-03-29T13:49:56.230Z,1213.00
2023-03-29T13:50:56.237Z,1219.00
2023-03-29T13:51:56.226Z,1258.00
2023-03-29T13:52:56.218Z,1240.00
2023-03-29T13:53:56.223Z,1269.00
2023-03-29T13:54:56.183Z,1294.00
2023-03-29T13:55:56.180Z,1232.00
2023-03-29T13:56:56.222Z,1235.00
2023-03-29T13:57:56.184Z,1322.00
2023-03-29T13:58:56.166Z,1275.00
2023-03-29T13:59:56.141Z,1216.00
2023-03-29T14:00:56.201Z,1270.00
2023-03-29T14:01:56.161Z,1347.00
2023-03-29T14:02:56.185Z,1251.00
2023-03-29T14:03:56.139Z,1136.00
2023-03-29T14:04:56.127Z,1051.00
2023-03-29T14:05:56.097Z,1064.00
2023-03-29T14:06:56.108Z,1065.00
2023-03-29T14:07:56.096Z,1067.00
2023-03-29T14:08:56.059Z,1113.00
2023-03-29T14:09:56.061Z,1172.00
2023-03-29T14:10:56.048Z,1120.00
2023-03-29T14:11:56.027Z,1199.00
2023-03-29T14:12:56.027Z,1182.00
2023-03-29T14:13:56.022Z,1189.00
2023-03-29T14:14:59.233Z,1223.00
2023-03-29T14:15:56.003Z,1197.00
2023-03-29T14:16:56.029Z,1253.00
2023-03-29T14:17:57.177Z,1422.00
2023-03-29T14:18:56.001Z,1207.00
2023-03-29T14:19:55.958Z,1455.00
2023-03-29T14:20:55.958Z,1803.00
2023-03-29T14:21:55.955Z,2338.00
2023-03-29T14:22:55.940Z,3137.00
2023-03-29T14:23:55.909Z,1256.00
2023-03-29T14:24:55.898Z,1525.00
2023-03-29T14:25:55.893Z,2001.00
2023-03-29T14:26:55.867Z,2695.00
2023-03-29T14:27:55.906Z,3644.00
2023-03-29T14:28:55.845Z,3799.00
2023-03-29T14:29:55.836Z,3836.00
2023-03-29T14:30:55.820Z,3839.00
2023-03-29T14:31:55.852Z,3894.00
2023-03-29T14:32:55.838Z,3922.00
2023-03-29T14:33:55.770Z,3915.00
2023-03-29T14:34:55.813Z,3950.00
2023-03-29T14:35:55.840Z,3969.00
2023-03-29T14:36:55.934Z,3985.00
2023-03-29T14:37:55.847Z,3963.00
2023-03-29T14:38:55.852Z,3994.00
2023-03-29T14:39:55.867Z,3998.00
2023-03-29T14:40:55.885Z,4026.00
2023-03-29T14:41:55.884Z,4002.00
2023-03-29T14:42:55.923Z,4016.00
2023-03-29T14:43:55.912Z,4015.00
2023-03-29T14:44:55.911Z,4055.00
2023-03-29T14:45:55.955Z,4042.00
2023-03-29T14:46:55.941Z,4036.00
2023-03-29T14:47:55.972Z,4028.00
2023-03-29T14:48:55.952Z,3978.00
2023-03-29T14:49:55.969Z,3997.00
2023-03-29T14:50:55.982Z,4005.00
2023-03-29T14:51:55.981Z,4034.00
2023-03-29T14:52:56.006Z,4069.00
2023-03-29T14:53:56.004Z,4097.00
2023-03-29T14:54:56.012Z,4099.00
2023-03-29T14:55:56.018Z,4114.00
2023-03-29T14:56:56.097Z,4142.00
2023-03-29T14:57:56.055Z,4136.00
2023-03-29T14:58:56.035Z,4152.00
2023-03-29T14:59:56.041Z,4189.00
2023-03-29T15:00:56.099Z,4227.00
2023-03-29T15:01:56.053Z,4248.00
2023-03-29T15:02:56.098Z,4267.00
2023-03-29T15:03:56.074Z,4315.00
2023-03-29T15:04:56.021Z,4317.00
2023-03-29T15:05:56.014Z,4326.00
2023-03-29T15:06:55.985Z,4354.00
2023-03-29T15:07:55.993Z,4397.00
2023-03-29T15:09:04.996Z,4448.00
2023-03-29T15:09:56.946Z,4322.00
2023-03-29T15:10:55.935Z,4347.00
2023-03-29T15:11:55.910Z,4399.00
2023-03-29T15:12:55.905Z,4324.00
2023-03-29T15:13:55.877Z,4358.00
2023-03-29T15:14:55.874Z,4424.00
2023-03-29T15:15:55.875Z,4520.00
2023-03-29T15:16:55.841Z,4674.00
2023-03-29T15:17:55.860Z,4677.00
2023-03-29T15:18:55.809Z,4691.00
2023-03-29T15:19:55.796Z,4714.00
2023-03-29T15:20:55.789Z,4734.00
2023-03-29T15:21:55.786Z,4749.00
2023-03-29T15:22:55.765Z,4770.00
2023-03-29T15:23:55.756Z,4777.00
2023-03-29T15:24:55.746Z,4803.00
2023-03-29T15:25:55.724Z,4806.00
2023-03-29T15:26:55.722Z,4825.00
2023-03-29T15:27:55.706Z,4854.00
2023-03-29T15:28:55.813Z,4859.00
2023-03-29T15:29:55.682Z,4858.00
2023-03-29T15:31:07.315Z,4877.00
2023-03-29T15:31:56.687Z,4879.00
2023-03-29T15:32:55.769Z,4881.00
2023-03-29T15:33:55.647Z,4879.00
2023-03-29T15:34:55.632Z,4887.00
2023-03-29T15:35:55.654Z,4901.00
2023-03-29T15:36:55.605Z,4923.00
2023-03-29T15:37:55.569Z,4958.00
2023-03-29T15:38:55.565Z,4974.00
2023-03-29T15:39:55.548Z,4971.00
2023-03-29T15:40:55.562Z,4972.00
2023-03-29T15:41:55.510Z,4975.00
2023-03-29T15:42:55.491Z,4981.00
2023-03-29T15:43:55.482Z,4993.00
2023-03-29T15:44:55.478Z,5004.00
2023-03-29T15:45:55.458Z,5016.00
2023-03-29T15:46:55.609Z,5008.00
2023-03-29T15:47:55.429Z,5024.00
2023-03-29T15:48:55.419Z,5022.00
2023-03-29T15:49:55.392Z,5035.00
2023-03-29T15:50:55.385Z,5023.00
2023-03-29T15:51:55.354Z,5025.00
2023-03-29T15:52:59.970Z,5029.00
2023-03-29T15:53:56.334Z,5025.00
2023-03-29T15:54:55.307Z,5029.00
2023-03-29T15:55:55.291Z,5034.00
2023-03-29T15:56:55.395Z,5047.00
2023-03-29T15:57:55.319Z,5073.00
2023-03-29T15:58:55.243Z,5060.00
2023-03-29T15:59:55.234Z,5065.00
2023-03-29T16:00:55.228Z,5064.00
2023-03-29T16:01:55.246Z,5049.00
2023-03-29T16:02:55.234Z,5067.00
2023-03-29T16:03:55.171Z,5056.00
2023-03-29T16:04:55.166Z,5042.00
2023-03-29T16:05:55.138Z,5062.00
2023-03-29T16:06:55.140Z,5055.00
2023-03-29T16:07:55.116Z,5062.00
2023-03-29T16:08:56.800Z,5059.00
2023-03-29T16:09:55.090Z,5058.00
2023-03-29T16:10:55.084Z,5051.00
2023-03-29T16:11:55.081Z,5037.00
2023-03-29T16:12:55.045Z,5039.00
2023-03-29T16:13:55.093Z,5049.00
2023-03-29T16:14:55.020Z,5044.00
2023-03-29T16:15:55.012Z,5043.00
2023-03-29T16:16:55.146Z,5029.00
2023-03-29T16:17:55.005Z,5038.00
2023-03-29T16:18:54.959Z,5029.00
2023-03-29T16:19:54.932Z,5032.00
2023-03-29T16:20:54.929Z,5022.00
2023-03-29T16:21:54.905Z,5038.00
2023-03-29T16:22:54.891Z,5019.00
2023-03-29T16:23:54.907Z,5010.00
2023-03-29T16:24:54.877Z,5008.00
2023-03-29T16:25:54.862Z,5020.00
2023-03-29T16:26:56.026Z,4991.00
2023-03-29T16:27:54.841Z,5014.00
2023-03-29T16:28:54.850Z,5014.00
2023-03-29T16:29:54.838Z,4996.00
2023-03-29T16:30:54.839Z,4983.00
2023-03-29T16:31:54.941Z,4994.00
2023-03-29T16:32:54.876Z,4980.00
2023-03-29T16:33:54.856Z,4987.00
2023-03-29T16:34:54.843Z,4979.00
2023-03-29T16:35:54.877Z,4966.00
2023-03-29T16:36:54.842Z,4962.00
2023-03-29T16:37:54.844Z,4971.00
2023-03-29T16:38:54.850Z,4964.00
2023-03-29T16:39:54.853Z,4972.00
2023-03-29T16:40:54.852Z,4966.00
2023-03-29T16:41:54.832Z,4964.00
2023-03-29T16:42:54.828Z,4941.00
2023-03-29T16:43:54.836Z,4937.00
2023-03-29T16:44:54.832Z,4947.00
2023-03-29T16:45:54.897Z,4937.00
2023-03-29T16:46:54.823Z,4940.00
2023-03-29T16:47:54.845Z,4930.00
2023-03-29T16:48:54.828Z,4932.00
2023-03-29T16:49:54.816Z,4921.00
2023-03-29T16:50:54.891Z,4926.00
2023-03-29T16:51:55.217Z,4916.00
2023-03-29T16:52:54.828Z,4911.00
2023-03-29T16:53:54.836Z,4917.00
2023-03-29T16:54:54.828Z,4909.00
2023-03-29T16:55:54.836Z,4895.00
2023-03-29T16:56:54.866Z,4914.00
2023-03-29T16:57:54.845Z,4903.00
2023-03-29T16:58:54.849Z,4890.00
2023-03-29T16:59:54.947Z,4897.00
2023-03-29T17:00:54.874Z,4883.00
2023-03-29T17:01:54.942Z,4894.00
2023-03-29T17:02:54.881Z,4892.00
2023-03-29T17:03:54.889Z,4871.00
2023-03-29T17:04:54.950Z,4882.00
2023-03-29T17:05:54.889Z,4871.00
2023-03-29T17:06:54.893Z,4862.00
2023-03-29T17:07:54.906Z,4859.00
2023-03-29T17:08:54.921Z,4854.00
2023-03-29T17:09:55.013Z,4844.00
2023-03-29T17:10:54.961Z,4872.00
2023-03-29T17:11:54.970Z,4849.00
2023-03-29T17:12:54.977Z,4841.00
2023-03-29T17:13:54.984Z,4849.00
2023-03-29T17:14:55.007Z,4852.00
2023-03-29T17:15:55.053Z,4840.00
2023-03-29T17:16:55.013Z,4832.00
2023-03-29T17:17:55.013Z,4833.00
2023-03-29T17:18:54.977Z,4835.00
2023-03-29T17:19:54.995Z,4829.00
2023-03-29T17:20:54.936Z,4838.00
2023-03-29T17:21:54.917Z,4829.00
2023-03-29T17:22:54.921Z,4825.00
2023-03-29T17:23:54.893Z,4836.00
2023-03-29T17:24:54.887Z,4818.00
2023-03-29T17:25:54.871Z,4827.00
2023-03-29T17:26:54.868Z,4804.00
2023-03-29T17:27:54.859Z,4808.00
2023-03-29T17:28:54.838Z,4795.00
2023-03-29T17:29:54.881Z,4795.00
2023-03-29T17:30:54.869Z,4788.00
2023-03-29T17:31:54.795Z,4793.00
2023-03-29T17:32:54.803Z,4799.00
2023-03-29T17:33:54.767Z,4799.00
2023-03-29T17:34:54.774Z,4796.00
2023-03-29T17:35:54.780Z,4793.00
2023-03-29T17:36:54.740Z,4785.00
2023-03-29T17:37:54.727Z,4786.00
2023-03-29T17:38:54.749Z,4792.00
2023-03-29T17:39:54.704Z,4786.00
2023-03-29T17:40:54.677Z,4772.00
2023-03-29T17:41:54.678Z,4765.00
2023-03-29T17:42:54.645Z,4776.00
2023-03-29T17:43:54.645Z,4765.00
2023-03-29T17:44:54.687Z,4749.00
2023-03-29T17:45:54.634Z,4753.00
2023-03-29T17:46:54.635Z,4757.00
2023-03-29T17:47:54.694Z,4758.00
2023-03-29T17:48:54.626Z,4736.00
2023-03-29T17:49:54.672Z,4742.00
2023-03-29T17:50:54.701Z,4736.00
2023-03-29T17:51:54.723Z,4735.00
2023-03-29T17:52:54.751Z,4717.00
2023-03-29T17:53:54.791Z,4728.00
2023-03-29T17:54:54.824Z,4705.00
2023-03-29T17:55:54.825Z,4721.00
2023-03-29T17:56:54.880Z,4716.00
2023-03-29T17:57:54.884Z,4711.00
2023-03-29T17:58:54.919Z,4705.00
2023-03-29T17:59:54.960Z,4689.00
2023-03-29T18:00:55.019Z,4705.00
2023-03-29T18:01:55.042Z,4687.00
2023-03-29T18:02:55.267Z,4696.00
2023-03-29T18:03:55.093Z,4688.00
2023-03-29T18:04:55.128Z,4695.00
2023-03-29T18:05:55.167Z,4683.00
2023-03-29T18:06:55.179Z,4673.00
2023-03-29T18:07:55.215Z,4677.00
2023-03-29T18:08:55.240Z,4662.00
2023-03-29T18:09:55.284Z,4648.00
2023-03-29T18:10:55.321Z,4669.00
2023-03-29T18:11:55.358Z,4663.00
2023-03-29T18:12:55.386Z,4659.00
2023-03-29T18:13:55.419Z,4642.00
2023-03-29T18:14:55.469Z,4646.00
2023-03-29T18:15:55.509Z,4641.00
2023-03-29T18:16:55.560Z,4630.00
2023-03-29T18:17:55.601Z,4636.00
2023-03-29T18:18:55.622Z,4622.00
2023-03-29T18:19:55.669Z,4629.00
2023-03-29T18:20:55.703Z,4620.00
2023-03-29T18:21:55.737Z,4623.00
2023-03-29T18:22:55.785Z,4605.00
2023-03-29T18:23:57.005Z,4616.00
2023-03-29T18:24:55.869Z,4606.00
2023-03-29T18:25:55.860Z,4606.00